createdAt,value
2018-06-28T00:00:41.553Z,4.67
2018-06-28T00:03:09.805Z,4.23
2018-06-28T00:05:37.987Z,3.40
2018-06-28T00:08:06.220Z,3.20
2018-06-28T00:10:34.425Z,3.33
2018-06-28T00:13:03.013Z,3.57
2018-06-28T00:15:31.195Z,3.63
2018-06-28T00:17:59.463Z,3.50
2018-06-28T00:20:27.703Z,3.60
2018-06-28T00:22:55.923Z,4.10
2018-06-28T00:25:23.903Z,4.37
2018-06-28T00:27:52.114Z,3.90
2018-06-28T00:30:20.319Z,3.40
2018-06-28T00:32:48.582Z,3.60
2018-06-28T00:35:16.786Z,3.57
2018-06-28T00:37:45.023Z,3.50
2018-06-28T00:40:13.227Z,3.80
2018-06-28T00:42:41.487Z,4.00
2018-06-28T00:45:10.003Z,3.50
2018-06-28T00:47:38.263Z,3.87
2018-06-28T00:50:06.552Z,3.43
2018-06-28T00:52:34.817Z,4.03
2018-06-28T00:55:03.004Z,4.77
2018-06-28T00:57:31.214Z,5.83
2018-06-28T00:59:59.428Z,4.13
2018-06-28T01:02:27.598Z,5.03
2018-06-28T01:04:55.787Z,4.60
2018-06-28T01:07:24.007Z,5.43
2018-06-28T01:09:52.214Z,6.97
2018-06-28T01:12:20.410Z,6.83
2018-06-28T01:14:48.627Z,5.47
2018-06-28T01:17:16.815Z,6.37
2018-06-28T01:19:45.026Z,9.10
2018-06-28T01:22:13.202Z,6.67
2018-06-28T01:24:41.463Z,6.37
2018-06-28T01:27:09.659Z,5.83
2018-06-28T01:29:37.930Z,7.50
2018-06-28T01:32:06.166Z,10.83
2018-06-28T01:34:34.867Z,6.13
2018-06-28T01:37:03.154Z,6.20
2018-06-28T01:39:31.360Z,6.60
2018-06-28T01:42:11.072Z,8.17
2018-06-28T01:44:39.307Z,6.73
2018-06-28T01:47:07.488Z,7.30
2018-06-28T01:49:35.698Z,8.40
2018-06-28T01:52:03.871Z,7.77
2018-06-28T01:54:32.103Z,6.30
2018-06-28T01:57:00.378Z,6.60
2018-06-28T01:59:28.587Z,7.60
2018-06-28T02:01:56.754Z,7.70
2018-06-28T02:04:24.958Z,7.20
2018-06-28T02:06:53.181Z,8.40
2018-06-28T02:09:21.374Z,6.83
2018-06-28T02:11:49.646Z,7.13
2018-06-28T02:14:17.838Z,8.40
2018-06-28T02:16:46.063Z,7.97
2018-06-28T02:19:14.270Z,6.83
2018-06-28T02:21:42.467Z,8.10
2018-06-28T02:24:10.722Z,7.23
2018-06-28T02:26:39.002Z,7.10
2018-06-28T02:29:07.175Z,6.83
2018-06-28T02:31:35.369Z,7.70
2018-06-28T02:34:03.553Z,7.63
2018-06-28T02:36:31.758Z,8.50
2018-06-28T02:38:59.950Z,7.10
2018-06-28T02:41:28.163Z,7.60
2018-06-28T02:43:56.352Z,7.40
2018-06-28T02:46:24.606Z,6.80
2018-06-28T02:48:52.799Z,7.07
2018-06-28T02:51:20.996Z,7.00
2018-06-28T02:53:49.197Z,8.50
2018-06-28T02:56:17.406Z,6.80
2018-06-28T02:58:45.597Z,7.70
2018-06-28T03:01:13.771Z,7.43
2018-06-28T03:03:41.971Z,6.30
2018-06-28T03:06:10.191Z,7.87
2018-06-28T03:08:38.444Z,6.80
2018-06-28T03:11:06.729Z,7.27
2018-06-28T03:13:34.914Z,7.27
2018-06-28T03:16:03.123Z,8.90
2018-06-28T03:18:31.307Z,7.03
2018-06-28T03:20:59.529Z,7.20
2018-06-28T03:23:27.726Z,7.13
2018-06-28T03:25:56.003Z,7.20
2018-06-28T03:28:24.270Z,6.87
2018-06-28T03:30:52.560Z,6.40
2018-06-28T03:33:20.715Z,7.50
2018-06-28T03:35:48.903Z,7.37
2018-06-28T03:38:17.195Z,6.77
2018-06-28T03:40:45.436Z,7.07
2018-06-28T03:43:13.735Z,6.60
2018-06-28T03:45:41.990Z,6.90
2018-06-28T03:48:10.199Z,6.83
2018-06-28T03:50:38.462Z,6.37
2018-06-28T03:53:06.723Z,7.07
2018-06-28T03:55:34.938Z,6.77
2018-06-28T03:58:03.215Z,7.57
2018-06-28T04:00:31.474Z,6.80
2018-06-28T04:02:59.729Z,6.40
2018-06-28T04:05:27.996Z,7.80
2018-06-28T04:07:56.229Z,8.30
2018-06-28T04:10:24.949Z,7.40
2018-06-28T04:12:53.243Z,6.40
2018-06-28T04:15:21.489Z,6.93
2018-06-28T04:17:49.743Z,7.10
2018-06-28T04:20:17.994Z,6.83
2018-06-28T04:22:46.215Z,8.40
2018-06-28T04:25:14.466Z,7.60
2018-06-28T04:27:42.684Z,10.53
2018-06-28T04:30:10.954Z,7.63
2018-06-28T04:32:39.320Z,8.10
2018-06-28T04:35:07.595Z,8.17
2018-06-28T04:37:35.829Z,8.43
2018-06-28T04:40:04.059Z,8.87
2018-06-28T04:42:32.382Z,8.43
2018-06-28T04:45:00.612Z,9.10
2018-06-28T04:47:28.851Z,8.93
2018-06-28T04:49:57.072Z,9.30
2018-06-28T04:52:26.079Z,8.83
2018-06-28T04:54:54.323Z,9.90
2018-06-28T04:57:22.508Z,9.00
2018-06-28T04:59:50.702Z,10.13
2018-06-28T05:02:18.986Z,11.63
2018-06-28T05:04:47.211Z,14.00
2018-06-28T05:07:15.403Z,9.20
2018-06-28T05:09:43.642Z,9.50
2018-06-28T05:12:11.839Z,9.67
2018-06-28T05:14:40.058Z,8.90
2018-06-28T05:17:08.349Z,9.03
2018-06-28T05:19:36.497Z,9.60
2018-06-28T05:22:04.967Z,9.00
2018-06-28T05:24:33.146Z,9.60
2018-06-28T05:27:01.359Z,9.50
2018-06-28T05:29:29.566Z,8.70
2018-06-28T05:31:57.781Z,8.20
2018-06-28T05:34:25.982Z,9.43
2018-06-28T05:36:54.188Z,8.43
2018-06-28T05:39:22.361Z,8.80
2018-06-28T05:41:50.547Z,9.50
2018-06-28T05:44:18.834Z,9.70
2018-06-28T05:46:47.037Z,8.87
2018-06-28T05:49:15.298Z,9.67
2018-06-28T05:51:43.615Z,8.87
2018-06-28T05:54:11.898Z,9.10
2018-06-28T05:56:40.003Z,8.63
2018-06-28T05:59:08.248Z,9.13
2018-06-28T06:01:36.661Z,8.23
2018-06-28T06:04:04.877Z,8.87
2018-06-28T06:06:33.072Z,9.10
2018-06-28T06:09:01.365Z,10.27
2018-06-28T06:14:05.039Z,8.90
2018-06-28T06:16:33.382Z,10.33
2018-06-28T06:19:01.598Z,8.80
2018-06-28T06:21:29.890Z,9.10
2018-06-28T06:23:58.284Z,9.43
2018-06-28T06:26:26.540Z,10.00
2018-06-28T06:28:54.766Z,10.20
2018-06-28T06:31:23.026Z,8.40
2018-06-28T06:33:51.286Z,11.03
2018-06-28T06:36:19.534Z,7.50
2018-06-28T06:38:47.791Z,9.10
2018-06-28T06:41:15.771Z,8.63
2018-06-28T06:43:44.022Z,8.20
2018-06-28T06:46:12.314Z,8.63
2018-06-28T06:48:40.764Z,7.20
2018-06-28T06:51:08.936Z,13.70
2018-06-28T06:53:37.211Z,9.10
2018-06-28T06:56:05.471Z,8.60
2018-06-28T06:58:33.715Z,8.50
2018-06-28T07:01:02.064Z,7.63
2018-06-28T07:03:30.227Z,7.67
2018-06-28T07:05:58.430Z,7.87
2018-06-28T07:08:26.779Z,7.30
2018-06-28T07:10:55.085Z,7.00
2018-06-28T07:13:23.306Z,7.63
2018-06-28T07:15:51.551Z,7.27
2018-06-28T07:18:19.726Z,8.10
2018-06-28T07:20:47.987Z,7.50
2018-06-28T07:23:16.280Z,8.27
2018-06-28T07:25:44.499Z,7.10
2018-06-28T07:28:12.712Z,8.97
2018-06-28T07:30:40.952Z,7.27
2018-06-28T07:33:09.291Z,6.80
2018-06-28T07:35:37.418Z,6.70
2018-06-28T07:38:05.834Z,7.83
2018-06-28T07:40:34.094Z,7.57
2018-06-28T07:43:02.387Z,7.57
2018-06-28T07:45:30.400Z,7.10
2018-06-28T07:47:58.614Z,7.53
2018-06-28T07:50:26.875Z,7.77
2018-06-28T07:52:55.181Z,8.10
2018-06-28T07:55:23.571Z,6.77
2018-06-28T07:57:51.729Z,5.90
2018-06-28T08:00:19.998Z,5.77
2018-06-28T08:02:48.251Z,7.57
2018-06-28T08:05:16.471Z,7.00
2018-06-28T08:07:44.768Z,7.83
2018-06-28T08:10:13.043Z,9.57
2018-06-28T08:12:41.285Z,36.30
2018-06-28T08:15:09.507Z,13.30
2018-06-28T08:17:37.734Z,15.93
2018-06-28T08:20:06.327Z,8.50
2018-06-28T08:22:34.599Z,9.33
2018-06-28T08:25:02.939Z,8.80
2018-06-28T08:27:31.111Z,8.20
2018-06-28T08:29:59.692Z,7.93
2018-06-28T08:32:28.054Z,8.50
2018-06-28T08:34:56.526Z,9.30
2018-06-28T08:37:24.763Z,9.63
2018-06-28T08:39:52.978Z,10.17
2018-06-28T08:42:21.251Z,11.53
2018-06-28T08:44:49.558Z,13.73
2018-06-28T08:47:17.776Z,12.37
2018-06-28T08:49:46.027Z,12.63
2018-06-28T08:52:14.310Z,13.00
2018-06-28T08:54:42.498Z,12.87
2018-06-28T08:57:10.720Z,12.90
2018-06-28T08:59:38.952Z,13.47
2018-06-28T09:02:07.171Z,13.47
2018-06-28T09:04:35.401Z,14.10
2018-06-28T09:07:03.650Z,12.73
2018-06-28T09:09:31.881Z,13.70
2018-06-28T09:12:00.084Z,13.43
2018-06-28T09:14:28.299Z,13.17
2018-06-28T09:16:56.555Z,12.50
2018-06-28T09:19:24.830Z,11.80
2018-06-28T09:21:53.050Z,12.43
2018-06-28T09:24:21.267Z,12.67
2018-06-28T09:26:49.479Z,13.07
2018-06-28T09:29:17.693Z,12.87
2018-06-28T09:31:45.913Z,13.17
2018-06-28T09:34:14.139Z,14.43
2018-06-28T09:36:42.354Z,12.73
2018-06-28T09:39:11.342Z,13.73
2018-06-28T09:41:39.619Z,13.93
2018-06-28T09:44:07.794Z,16.53
2018-06-28T09:46:36.071Z,16.40
2018-06-28T09:49:04.289Z,15.77
2018-06-28T09:51:32.479Z,17.40
2018-06-28T09:54:00.669Z,16.60
2018-06-28T09:56:28.659Z,17.87
2018-06-28T09:58:56.877Z,18.53
2018-06-28T10:01:25.086Z,18.80
2018-06-28T10:03:53.284Z,18.73
2018-06-28T10:06:21.574Z,17.90
2018-06-28T10:08:49.777Z,17.27
2018-06-28T10:11:17.994Z,17.10
2018-06-28T10:13:46.290Z,17.90
2018-06-28T10:16:15.377Z,16.80
2018-06-28T10:18:43.602Z,18.50
2018-06-28T10:21:11.531Z,16.47
2018-06-28T10:23:39.762Z,16.60
2018-06-28T10:26:07.975Z,16.80
2018-06-28T10:28:36.190Z,16.97
2018-06-28T10:31:04.399Z,16.43
2018-06-28T10:33:32.699Z,15.73
2018-06-28T10:36:00.930Z,17.10
2018-06-28T10:38:29.125Z,16.13
2018-06-28T10:40:57.413Z,16.37
2018-06-28T10:43:25.579Z,18.63
2018-06-28T10:45:53.778Z,16.40
2018-06-28T10:48:21.973Z,17.40
2018-06-28T10:50:50.154Z,16.73
2018-06-28T10:53:18.347Z,18.20
2018-06-28T10:55:46.566Z,17.43
2018-06-28T10:58:14.774Z,17.43
2018-06-28T11:00:42.985Z,17.90
2018-06-28T11:03:11.236Z,17.20
2018-06-28T11:05:40.150Z,22.00
2018-06-28T11:08:08.421Z,22.53
2018-06-28T11:10:38.430Z,18.10
2018-06-28T11:13:06.782Z,17.87
2018-06-28T11:15:35.058Z,17.57
2018-06-28T11:18:03.327Z,17.27
2018-06-28T11:20:31.562Z,17.93
2018-06-28T11:22:59.840Z,18.23
2018-06-28T11:25:27.818Z,18.80
2018-06-28T11:27:56.032Z,17.63
2018-06-28T11:30:24.378Z,20.27
2018-06-28T11:32:52.586Z,19.57
2018-06-28T11:35:20.838Z,17.50
2018-06-28T11:37:49.121Z,20.67
2018-06-28T11:40:17.434Z,18.53
2018-06-28T11:42:45.693Z,22.43
2018-06-28T11:45:14.014Z,21.40
2018-06-28T11:47:42.327Z,30.17
2018-06-28T11:50:10.566Z,23.70
2018-06-28T11:52:38.782Z,23.50
2018-06-28T11:55:07.019Z,24.30
2018-06-28T11:57:35.237Z,24.47
2018-06-28T12:00:03.687Z,19.70
2018-06-28T12:02:38.618Z,19.93
2018-06-28T12:05:06.983Z,20.47
2018-06-28T12:07:35.205Z,22.40
2018-06-28T12:10:03.567Z,20.77
2018-06-28T12:12:31.779Z,19.33
2018-06-28T12:15:00.079Z,20.70
2018-06-28T12:17:34.639Z,22.53
2018-06-28T12:20:02.974Z,22.07
2018-06-28T12:22:31.237Z,21.70
2018-06-28T12:24:59.483Z,21.90
2018-06-28T12:27:27.738Z,22.13
2018-06-28T12:29:55.955Z,22.07
2018-06-28T12:32:24.212Z,21.70
2018-06-28T12:34:52.474Z,20.83
2018-06-28T12:37:20.687Z,20.43
2018-06-28T12:39:48.925Z,20.90
2018-06-28T12:42:17.221Z,22.07
2018-06-28T12:44:45.471Z,20.80
2018-06-28T12:48:05.335Z,21.00
2018-06-28T12:50:33.843Z,20.93
2018-06-28T12:53:04.160Z,20.97
2018-06-28T12:56:46.929Z,21.60
2018-06-28T12:59:16.558Z,19.50
2018-06-28T13:01:45.067Z,20.57
2018-06-28T13:04:13.337Z,19.90
2018-06-28T13:06:41.627Z,19.30
2018-06-28T13:09:12.900Z,18.03
2018-06-28T13:11:41.187Z,21.07
2018-06-28T13:14:09.421Z,20.07
2018-06-28T13:16:37.694Z,19.93
2018-06-28T13:19:06.010Z,20.07
2018-06-28T13:21:34.253Z,19.33
2018-06-28T13:24:02.606Z,20.43
2018-06-28T13:26:30.896Z,18.00
2018-06-28T13:28:59.125Z,18.57
2018-06-28T13:31:27.329Z,18.40
2018-06-28T13:33:55.640Z,19.17
2018-06-28T13:36:23.854Z,18.07
2018-06-28T13:38:52.086Z,19.03
2018-06-28T13:41:20.724Z,19.00
2018-06-28T13:43:48.880Z,20.30
2018-06-28T13:46:17.136Z,16.83
2018-06-28T13:48:45.440Z,18.90
2018-06-28T13:51:13.396Z,17.70
2018-06-28T13:53:41.658Z,17.90
2018-06-28T13:56:09.938Z,20.33
2018-06-28T13:58:38.269Z,17.97
2018-06-28T14:01:06.552Z,16.07
2018-06-28T14:03:34.795Z,18.60
2018-06-28T14:06:03.035Z,18.90
2018-06-28T14:08:31.262Z,17.43
2018-06-28T14:10:59.467Z,19.00
2018-06-28T14:13:27.674Z,23.03
2018-06-28T14:15:57.417Z,21.20
2018-06-28T14:18:25.617Z,21.43
2018-06-28T14:20:53.857Z,22.67
2018-06-28T14:23:22.915Z,24.13
2018-06-28T14:25:51.803Z,21.93
2018-06-28T14:28:20.260Z,23.83
2018-06-28T14:30:48.548Z,26.07
2018-06-28T14:33:16.738Z,24.23
2018-06-28T14:35:44.947Z,25.80
2018-06-28T14:38:13.198Z,23.80
2018-06-28T14:40:41.417Z,23.23
2018-06-28T14:43:09.637Z,25.33
2018-06-28T14:45:37.863Z,26.90
2018-06-28T14:48:06.123Z,24.73
2018-06-28T14:50:34.471Z,24.00
2018-06-28T14:53:02.643Z,24.50
2018-06-28T14:55:31.038Z,26.33
2018-06-28T14:58:00.759Z,24.87
2018-06-28T15:00:29.142Z,25.97
2018-06-28T15:02:57.344Z,21.27
2018-06-28T15:05:25.571Z,27.73
2018-06-28T15:07:53.847Z,26.60
2018-06-28T15:10:22.134Z,24.33
2018-06-28T15:12:50.498Z,24.00
2018-06-28T15:15:18.733Z,23.80
2018-06-28T15:17:47.097Z,22.53
2018-06-28T15:20:15.497Z,24.03
2018-06-28T15:22:43.704Z,20.77
2018-06-28T15:25:11.990Z,21.73
2018-06-28T15:27:40.325Z,20.53
2018-06-28T15:30:08.839Z,24.20
2018-06-28T15:32:37.106Z,25.07
2018-06-28T15:35:05.462Z,23.47
2018-06-28T15:37:33.804Z,24.53
2018-06-28T15:40:02.054Z,26.80
2018-06-28T15:42:30.295Z,23.90
2018-06-28T15:44:58.567Z,24.37
2018-06-28T15:47:27.070Z,23.20
2018-06-28T15:49:55.346Z,20.57
2018-06-28T15:52:23.601Z,21.10
2018-06-28T15:54:51.856Z,19.27
2018-06-28T15:57:20.096Z,20.47
2018-06-28T15:59:48.321Z,20.47
2018-06-28T16:02:16.330Z,22.70
2018-06-28T16:04:44.610Z,21.53
2018-06-28T16:07:12.892Z,23.90
2018-06-28T16:09:41.632Z,21.80
2018-06-28T16:12:09.850Z,22.40
2018-06-28T16:14:38.050Z,27.63
2018-06-28T16:17:06.318Z,34.30
2018-06-28T16:19:34.522Z,21.83
2018-06-28T16:22:02.729Z,21.50
2018-06-28T16:24:30.934Z,21.67
2018-06-28T16:26:59.178Z,21.43
2018-06-28T16:29:27.422Z,20.10
2018-06-28T16:31:55.756Z,21.67
2018-06-28T16:34:24.017Z,20.50
2018-06-28T16:36:52.235Z,23.43
2018-06-28T16:39:20.534Z,18.83
2018-06-28T16:41:48.690Z,22.03
2018-06-28T16:44:16.882Z,21.57
2018-06-28T16:46:45.180Z,16.67
2018-06-28T16:49:13.427Z,15.83
2018-06-28T16:51:43.322Z,15.30
2018-06-28T16:54:11.507Z,17.03
2018-06-28T16:56:39.686Z,16.30
2018-06-28T16:59:07.921Z,17.07
2018-06-28T17:01:36.228Z,17.07
2018-06-28T17:04:04.755Z,15.77
2018-06-28T17:06:32.978Z,17.57
2018-06-28T17:09:01.227Z,15.50
2018-06-28T17:11:29.622Z,15.00
2018-06-28T17:13:57.882Z,15.87
2018-06-28T17:16:26.195Z,15.10
2018-06-28T17:18:54.590Z,16.20
2018-06-28T17:21:22.843Z,13.77
2018-06-28T17:23:51.110Z,13.10
2018-06-28T17:26:19.360Z,14.30
2018-06-28T17:28:47.628Z,15.73
2018-06-28T17:31:15.833Z,17.17
2018-06-28T17:33:44.096Z,15.80
2018-06-28T17:36:12.296Z,16.23
2018-06-28T17:38:40.536Z,15.80
2018-06-28T17:41:08.842Z,16.00
2018-06-28T17:43:37.097Z,16.00
2018-06-28T17:46:05.358Z,16.13
2018-06-28T17:48:33.674Z,16.97
2018-06-28T17:51:02.003Z,18.27
2018-06-28T17:53:30.137Z,17.63
2018-06-28T17:55:58.395Z,17.60
2018-06-28T17:58:26.747Z,20.10
2018-06-28T18:00:54.947Z,20.77
2018-06-28T18:03:23.168Z,22.43
2018-06-28T18:05:51.499Z,24.57
2018-06-28T18:08:20.066Z,22.80
2018-06-28T18:10:48.775Z,20.77
2018-06-28T18:13:17.050Z,19.10
2018-06-28T18:15:45.297Z,15.33
2018-06-28T18:18:13.554Z,15.10
2018-06-28T18:20:41.927Z,15.10
2018-06-28T18:23:09.857Z,14.17
2018-06-28T18:25:38.071Z,13.67
2018-06-28T18:28:06.279Z,16.37
2018-06-28T18:30:34.479Z,16.87
2018-06-28T18:33:02.735Z,17.27
2018-06-28T18:35:30.988Z,18.23
2018-06-28T18:37:59.273Z,18.93
2018-06-28T18:40:27.471Z,18.97
2018-06-28T18:42:55.745Z,72.17
2018-06-28T18:45:23.990Z,19.73
2018-06-28T18:47:52.309Z,21.80
2018-06-28T18:50:20.577Z,22.83
2018-06-28T18:52:48.816Z,23.17
2018-06-28T18:55:17.406Z,24.73
2018-06-28T18:57:45.605Z,24.30
2018-06-28T19:00:13.790Z,24.37
2018-06-28T19:02:42.035Z,23.93
2018-06-28T19:05:10.043Z,22.50
2018-06-28T19:07:38.306Z,23.43
2018-06-28T19:10:12.127Z,18.80
2018-06-28T19:12:40.348Z,23.50
2018-06-28T19:15:13.894Z,22.33
2018-06-28T19:17:42.133Z,21.77
2018-06-28T19:20:10.410Z,21.77
2018-06-28T19:22:44.126Z,22.77
2018-06-28T19:25:12.418Z,21.53
2018-06-28T19:27:40.675Z,21.23
2018-06-28T19:30:14.330Z,21.43
2018-06-28T19:32:42.517Z,22.10
2018-06-28T19:35:10.799Z,22.30
2018-06-28T19:37:44.510Z,21.03
2018-06-28T19:40:18.263Z,20.50
2018-06-28T19:42:51.898Z,19.87
2018-06-28T19:45:20.086Z,20.97
2018-06-28T19:47:48.470Z,21.43
2018-06-28T19:50:22.109Z,20.70
2018-06-28T19:52:53.746Z,20.80
2018-06-28T19:55:22.262Z,21.43
2018-06-28T19:57:50.483Z,21.50
2018-06-28T20:00:23.969Z,23.17
2018-06-28T20:02:57.671Z,22.23
2018-06-28T20:05:25.850Z,23.07
2018-06-28T20:07:54.126Z,21.40
2018-06-28T20:10:22.366Z,20.10
2018-06-28T20:12:55.995Z,22.53
2018-06-28T20:15:41.188Z,22.20
2018-06-28T20:18:14.798Z,20.13
2018-06-28T20:20:43.019Z,19.77
2018-06-28T20:23:11.302Z,21.23
2018-06-28T20:25:39.557Z,20.90
2018-06-28T20:28:13.158Z,20.80
2018-06-28T20:30:46.810Z,20.90
2018-06-28T20:33:20.499Z,22.10
2018-06-28T20:35:48.814Z,18.27
2018-06-28T20:38:17.075Z,20.47
2018-06-28T20:40:45.366Z,22.00
2018-06-28T20:43:13.663Z,22.87
2018-06-28T20:45:41.898Z,23.40
2018-06-28T20:48:10.210Z,24.10
2018-06-28T20:50:38.520Z,24.83
2018-06-28T20:53:06.782Z,26.60
2018-06-28T20:55:35.237Z,26.90
2018-06-28T20:58:03.497Z,29.17
2018-06-28T21:00:31.746Z,28.50
2018-06-28T21:02:59.996Z,29.67
2018-06-28T21:05:28.256Z,28.77
2018-06-28T21:07:57.062Z,29.47
2018-06-28T21:10:25.515Z,30.97
2018-06-28T21:12:53.725Z,30.20
2018-06-28T21:15:22.190Z,32.23
2018-06-28T21:17:50.598Z,35.07
2018-06-28T21:20:18.816Z,29.93
2018-06-28T21:22:47.518Z,33.87
2018-06-28T21:25:16.922Z,33.10
2018-06-28T21:27:45.129Z,33.17
2018-06-28T21:30:13.764Z,33.30
2018-06-28T21:32:41.999Z,33.00
2018-06-28T21:35:10.206Z,33.00
2018-06-28T21:37:38.734Z,29.97
2018-06-28T21:40:06.938Z,33.77
2018-06-28T21:42:35.251Z,30.47
2018-06-28T21:45:03.249Z,31.73
2018-06-28T21:47:31.470Z,33.07
2018-06-28T21:49:59.654Z,31.97
2018-06-28T21:52:34.155Z,30.13
2018-06-28T21:55:02.383Z,30.30
2018-06-28T21:57:30.590Z,30.13
2018-06-28T21:59:58.852Z,29.03
2018-06-28T22:02:27.086Z,28.90
2018-06-28T22:04:55.358Z,29.10
2018-06-28T22:07:23.611Z,26.60
2018-06-28T22:09:51.864Z,27.43
2018-06-28T22:12:20.155Z,27.20
2018-06-28T22:14:48.426Z,27.80
2018-06-28T22:17:16.655Z,26.00
2018-06-28T22:19:44.901Z,24.43
2018-06-28T22:22:13.162Z,25.50
2018-06-28T22:24:41.435Z,25.80
2018-06-28T22:27:09.712Z,26.53
2018-06-28T22:29:38.200Z,36.53
2018-06-28T22:32:06.486Z,25.83
2018-06-28T22:34:34.732Z,25.63
2018-06-28T22:37:02.992Z,27.77
2018-06-28T22:39:31.239Z,26.23
2018-06-28T22:41:59.486Z,25.27
2018-06-28T22:44:28.644Z,25.93
2018-06-28T22:46:56.889Z,24.17
2018-06-28T22:49:25.209Z,25.53
2018-06-28T22:51:53.439Z,25.27
2018-06-28T22:54:21.715Z,23.93
2018-06-28T22:56:49.938Z,24.50
2018-06-28T22:59:18.190Z,24.57
2018-06-28T23:01:46.486Z,25.00
2018-06-28T23:04:14.732Z,24.10
2018-06-28T23:06:42.963Z,24.70
2018-06-28T23:09:11.759Z,24.53
2018-06-28T23:11:39.705Z,24.40
2018-06-28T23:14:07.945Z,26.37
2018-06-28T23:16:36.225Z,27.30
2018-06-28T23:19:04.549Z,25.43
2018-06-28T23:21:32.751Z,25.23
2018-06-28T23:24:01.001Z,26.10
2018-06-28T23:26:29.179Z,25.27
2018-06-28T23:28:57.394Z,25.60
2018-06-28T23:31:25.638Z,23.00
2018-06-28T23:33:53.883Z,25.80
2018-06-28T23:36:22.106Z,26.90
2018-06-28T23:38:50.374Z,23.83
2018-06-28T23:41:18.592Z,26.70
2018-06-28T23:43:46.795Z,27.57
2018-06-28T23:46:15.145Z,24.73
2018-06-28T23:48:43.546Z,23.73
2018-06-28T23:51:11.619Z,24.67
2018-06-28T23:53:39.871Z,24.93
2018-06-28T23:56:08.088Z,23.10
2018-06-28T23:58:36.340Z,24.90
